Valognes, Francia

9:32 AM CET en Marzo 04, 2015 (GMT +0100)
Alderney | Change Station
CLOSE
Current Station
Aeropuerto
Location: Alderney,
Altura: 233 ft
Estaciones meteorológicas cercanas

Alt 233 ft 49.71 °N, 2.21 °W | Updated 12 minutes ago

Partly Cloudy
Parcialmente nublado
43 ° F
Sensación térmica 34 ° F
N
20
Viento Variable Viento desde NO

Hoy
Alta -- | Baja -- ° F
--% Posibilidad de precipitaciones
Ayer
Alta -- | Baja -- ° F
Precip. -- pul
7:43 AM 6:52 PM
Gibosa creciente, 98% visible
Presión 30.42 pul
Visibilidad 6.2 Millas
Nubes Baja 2500 ft
Vientos helados 34 ° F
Punto de rocío 36 ° F
Humedad 76%
Precipitaciones 0.00 pul
Espesor de la nieve No disponible.
UV 1 de una escala de 12
Polen No disponible.
Calidad del aire No disponible.
Flu Activity No disponible.
METAR EGJA 040820Z 31017KT 280V350 9999 FEW025 06/02 Q1030

More Conditions Fewer Conditions

Presión 30.42 pul
Visibilidad 6.2 Millas
Nubes Baja 2500 ft
Vientos helados 34 ° F
Punto de rocío 36 ° F
Humedad 76%
Precipitaciones 0.00 pul
Espesor de la nieve No disponible.
UV 1 de una escala de 12
Polen No disponible.
Calidad del aire No disponible.
Flu Activity No disponible.
METAR EGJA 040820Z 31017KT 280V350 9999 FEW025 06/02 Q1030

More Conditions Fewer Conditions

10-Day Weather Forecast

Almanac

Astronomía

Mar. 04, 2015 Salida Puesta
Hora real
Crepúsculo civil
Crepúsculo náutico
Crepúsculo astronómico
Luna
Horas de luz
Horas de luz
Tomorrow will be .
, % of the Moon is Illuminated

Extremos de hoy

Máximos del país Bajas del país

Community

WunderPhotos

Upload Photos

1,802,416 ¡fotos cargadas!

WunderBlogs® & News

Nearby

Calidad del aire

  Calidad del aire Índice AQ Contaminante
Not available.

Grosos de nieve

Estación Profundido Altura

Actividad de terremotos

Ciudad Distance Mag. Tiempo y dato
Magnitud mínima muestra es 2,5.

Temperaturas de aguas costeras

Lugar Temperatura

Estaciones meteorológicas cercanas